createdAt,value
2023-05-19T04:56:39.463Z,16.80
2023-05-19T05:08:35.312Z,17.12
2023-05-19T05:11:03.093Z,17.18
2023-05-19T05:13:31.085Z,17.31
2023-05-19T05:15:59.986Z,17.45
2023-05-19T05:18:28.780Z,17.59
2023-05-19T05:20:56.325Z,17.70
2023-05-19T05:23:24.432Z,17.76
2023-05-19T05:25:52.257Z,17.80
2023-05-19T05:28:19.698Z,17.86
2023-05-19T05:30:47.577Z,17.94
2023-05-19T05:33:15.502Z,18.00
2023-05-19T05:35:42.575Z,18.02
2023-05-19T05:38:12.790Z,18.05
2023-05-19T05:40:40.973Z,18.08
2023-05-19T05:43:08.222Z,18.12
2023-05-19T05:45:40.852Z,18.17
2023-05-19T05:48:09.175Z,18.21
2023-05-19T05:50:36.956Z,18.24
2023-05-19T05:53:05.631Z,18.26
2023-05-19T05:55:35.798Z,18.27
2023-05-19T05:58:04.437Z,18.28
2023-05-19T06:00:32.109Z,18.28
2023-05-19T06:03:00.445Z,18.27
2023-05-19T06:05:27.849Z,18.22
2023-05-19T06:07:55.503Z,18.16
2023-05-19T06:10:25.515Z,18.14
2023-05-19T06:12:53.185Z,18.16
2023-05-19T06:15:22.276Z,18.18
2023-05-19T06:17:52.942Z,18.20
2023-05-19T06:20:21.525Z,18.22
2023-05-19T06:22:48.657Z,18.24
2023-05-19T06:25:18.967Z,18.28
2023-05-19T06:27:47.249Z,18.35
2023-05-19T06:30:15.020Z,18.42
2023-05-19T06:32:50.378Z,18.47
2023-05-19T06:35:17.503Z,18.49
2023-05-19T06:37:44.568Z,18.50
2023-05-19T06:40:14.187Z,18.54
2023-05-19T06:42:41.620Z,18.56
2023-05-19T06:45:22.078Z,18.60
2023-05-19T06:47:50.513Z,18.60
2023-05-19T06:50:18.739Z,18.57
2023-05-19T06:52:47.943Z,18.53
2023-05-19T06:55:14.984Z,18.47
2023-05-19T06:57:43.371Z,18.45
2023-05-19T07:00:15.880Z,18.50
2023-05-19T07:02:47.921Z,18.57
2023-05-19T07:05:15.440Z,18.62
2023-05-19T07:07:44.637Z,18.67
2023-05-19T07:10:13.941Z,18.72
2023-05-19T07:12:41.608Z,18.76
2023-05-19T07:15:09.764Z,18.85
2023-05-19T07:17:38.472Z,19.00
2023-05-19T07:20:11.253Z,19.17
2023-05-19T07:22:40.143Z,19.31
2023-05-19T07:25:08.348Z,19.41
2023-05-19T07:27:35.455Z,19.51
2023-05-19T07:30:04.239Z,19.62
2023-05-19T07:32:32.204Z,19.78
2023-05-19T07:34:59.375Z,19.91
2023-05-19T07:37:26.713Z,19.98
2023-05-19T07:39:54.480Z,20.06
2023-05-19T07:42:21.524Z,20.11
2023-05-19T07:44:48.581Z,20.16
2023-05-19T07:47:15.617Z,20.21
2023-05-19T07:49:42.699Z,20.29
2023-05-19T07:52:09.625Z,20.36
2023-05-19T07:54:37.529Z,20.45
2023-05-19T07:57:05.458Z,20.55
2023-05-19T07:59:32.498Z,20.65
2023-05-19T08:02:00.377Z,20.74
2023-05-19T08:04:29.336Z,20.82
2023-05-19T08:06:56.403Z,20.91
2023-05-19T08:09:24.508Z,21.02
2023-05-19T08:11:52.240Z,21.14
2023-05-19T08:14:20.679Z,21.23
2023-05-19T08:16:49.264Z,21.24
2023-05-19T08:19:16.429Z,21.21
2023-05-19T08:21:43.617Z,21.17
2023-05-19T08:24:10.661Z,21.17
2023-05-19T08:26:39.255Z,21.15
2023-05-19T08:29:06.404Z,21.11
2023-05-19T08:31:35.335Z,21.06
2023-05-19T08:34:03.869Z,21.02
2023-05-19T08:36:31.045Z,21.01
2023-05-19T08:38:58.070Z,21.01
2023-05-19T08:41:25.236Z,21.04
2023-05-19T08:43:52.266Z,21.10
2023-05-19T08:46:19.602Z,21.16
2023-05-19T08:48:46.877Z,21.25
2023-05-19T08:51:42.802Z,21.33
2023-05-19T08:54:18.916Z,21.52
2023-05-19T08:56:46.950Z,21.69
2023-05-19T08:59:15.420Z,21.75
2023-05-19T09:01:50.887Z,21.70
2023-05-19T09:04:18.185Z,21.63
2023-05-19T09:06:45.639Z,21.60
2023-05-19T09:09:12.861Z,21.65
2023-05-19T09:11:39.879Z,21.87
2023-05-19T09:14:07.004Z,22.15
2023-05-19T09:16:34.317Z,22.40
2023-05-19T09:19:01.851Z,22.58
2023-05-19T09:21:32.806Z,22.61
2023-05-19T09:24:07.808Z,22.60
2023-05-19T09:26:42.645Z,22.61
2023-05-19T09:29:17.284Z,22.67
2023-05-19T09:31:52.139Z,22.81
2023-05-19T09:34:20.093Z,22.95
2023-05-19T09:36:49.807Z,22.95
2023-05-19T09:39:17.471Z,22.89
2023-05-19T09:41:44.635Z,22.82
2023-05-19T09:44:30.745Z,22.71
2023-05-19T09:46:59.607Z,22.60
2023-05-19T09:49:33.149Z,22.50
2023-05-19T09:52:03.455Z,22.41
2023-05-19T09:54:32.746Z,22.41
2023-05-19T09:57:07.102Z,22.47
2023-05-19T09:59:39.218Z,22.48
2023-05-19T10:02:07.576Z,22.40
2023-05-19T10:04:36.717Z,22.34
2023-05-19T10:07:06.022Z,22.35
2023-05-19T10:09:34.739Z,22.38
2023-05-19T10:12:02.451Z,22.39
2023-05-19T10:14:30.637Z,22.34
2023-05-19T10:16:59.011Z,22.32
2023-05-19T10:19:27.662Z,22.16
2023-05-19T10:21:55.224Z,22.04
2023-05-19T10:24:23.367Z,21.97
2023-05-19T10:26:53.740Z,21.90
2023-05-19T10:29:24.984Z,21.88
2023-05-19T10:31:52.245Z,21.84
2023-05-19T10:34:19.645Z,21.80
2023-05-19T10:36:50.666Z,21.71
2023-05-19T10:39:26.392Z,21.62
2023-05-19T10:42:17.141Z,21.56
2023-05-19T10:44:58.952Z,21.44
2023-05-19T10:47:27.460Z,21.22
2023-05-19T10:49:54.702Z,21.02
2023-05-19T10:52:23.533Z,20.85
2023-05-19T10:54:56.443Z,20.76
2023-05-19T10:57:32.222Z,20.72
2023-05-19T11:00:09.283Z,20.68
2023-05-19T11:02:41.134Z,20.60
2023-05-19T17:39:48.800Z,18.20
2023-05-19T17:42:18.114Z,18.21
2023-05-19T17:44:46.894Z,18.30
2023-05-19T17:47:14.044Z,18.37
2023-05-19T17:49:41.545Z,18.44
2023-05-19T17:52:10.767Z,18.50
2023-05-19T17:54:38.321Z,18.55
2023-05-19T17:57:08.292Z,18.60
2023-05-19T17:59:37.208Z,18.63
2023-05-19T18:02:05.080Z,18.66
2023-05-19T18:04:34.744Z,18.67
2023-05-19T18:07:02.108Z,18.68
2023-05-19T18:09:29.279Z,18.69
2023-05-19T18:11:57.628Z,18.68
2023-05-19T18:14:25.498Z,18.66
2023-05-19T18:16:52.627Z,18.63
2023-05-19T18:19:21.068Z,18.63
2023-05-19T18:21:48.282Z,18.64
2023-05-19T18:24:15.313Z,18.65
2023-05-19T18:26:43.486Z,18.62
2023-05-19T18:29:11.157Z,18.60
2023-05-19T18:31:38.484Z,18.55
2023-05-19T18:34:06.174Z,18.51
2023-05-19T18:36:34.343Z,18.50
2023-05-19T18:39:02.231Z,18.50
2023-05-19T18:41:29.469Z,18.49
2023-05-19T18:43:57.298Z,18.45
2023-05-19T18:46:25.677Z,18.40
2023-05-19T18:48:53.285Z,18.36
2023-05-19T18:51:21.867Z,18.34
2023-05-19T18:53:50.353Z,18.34
2023-05-19T18:56:27.288Z,18.34
2023-05-19T18:58:54.802Z,18.31
2023-05-19T19:01:22.026Z,18.28
2023-05-19T19:03:49.741Z,18.26
2023-05-19T19:06:21.156Z,18.25
2023-05-19T19:08:48.719Z,18.24
2023-05-19T19:11:16.073Z,18.24
2023-05-19T19:13:43.938Z,18.20
2023-05-19T19:16:11.200Z,18.12
2023-05-19T19:18:40.543Z,18.08
2023-05-19T19:21:07.846Z,18.05
2023-05-19T19:23:35.100Z,18.02
2023-05-19T19:26:03.177Z,17.99
2023-05-19T19:28:30.628Z,17.93
2023-05-19T19:30:59.004Z,17.85
2023-05-19T19:33:26.268Z,17.79
2023-05-19T19:35:56.418Z,17.77
2023-05-19T19:38:23.854Z,17.74
2023-05-19T19:40:54.164Z,17.70
2023-05-19T19:43:21.210Z,17.62
2023-05-19T19:45:48.257Z,17.51
2023-05-19T19:48:16.330Z,17.44
2023-05-19T19:50:44.611Z,17.40
2023-05-19T19:53:11.863Z,17.38
2023-05-19T19:55:38.980Z,17.32
2023-05-19T19:58:06.096Z,17.25
2023-05-19T20:00:33.660Z,17.17
2023-05-19T20:03:05.231Z,17.11
2023-05-19T20:05:41.127Z,17.06
2023-05-19T20:08:08.186Z,17.03
2023-05-19T20:10:35.410Z,17.00
2023-05-19T20:13:03.409Z,16.94
2023-05-19T20:15:30.449Z,16.86
2023-05-19T20:17:57.537Z,16.80
2023-05-19T20:20:24.747Z,16.77
2023-05-19T20:22:52.005Z,16.75
2023-05-19T20:25:19.158Z,16.70
2023-05-19T20:27:46.409Z,16.64
2023-05-19T20:30:13.660Z,16.61
2023-05-19T20:32:40.735Z,16.61
2023-05-19T20:35:08.926Z,16.60
2023-05-19T20:37:36.033Z,16.57
2023-05-19T20:40:03.206Z,16.54
2023-05-19T20:42:30.169Z,16.53
2023-05-19T20:44:57.806Z,16.55
2023-05-19T20:47:24.928Z,16.56
2023-05-19T20:49:52.094Z,16.55
2023-05-19T20:52:19.244Z,16.51
2023-05-19T20:54:46.810Z,16.49
2023-05-19T20:57:13.827Z,16.50
2023-05-19T20:59:40.792Z,16.53
2023-05-19T21:02:07.997Z,16.54
2023-05-19T21:04:35.172Z,16.55
2023-05-19T21:07:02.425Z,16.53
2023-05-19T21:09:29.667Z,16.52
2023-05-19T21:11:56.709Z,16.54
2023-05-19T21:14:25.803Z,16.59
2023-05-19T21:16:56.075Z,16.64
2023-05-19T21:19:23.637Z,16.64
2023-05-19T21:21:51.355Z,16.64
2023-05-19T21:24:19.012Z,16.66
2023-05-19T21:26:46.881Z,16.68
2023-05-19T21:29:14.026Z,16.70
2023-05-19T21:31:41.158Z,16.76
2023-05-19T21:34:08.430Z,16.79
2023-05-19T21:36:35.582Z,16.77
2023-05-19T21:39:03.958Z,16.77
2023-05-19T21:41:32.650Z,16.80
2023-05-19T21:43:59.798Z,16.81
2023-05-19T21:46:28.229Z,16.83
2023-05-19T21:48:55.736Z,16.81
2023-05-19T21:51:22.886Z,16.82
2023-05-19T21:53:50.141Z,16.86
2023-05-19T21:56:17.350Z,16.86
2023-05-19T21:58:46.688Z,16.82
2023-05-19T22:01:14.567Z,16.80
2023-05-19T22:03:42.314Z,16.78
2023-05-19T22:06:09.523Z,16.75
2023-05-19T22:08:36.726Z,16.72
2023-05-19T22:11:04.079Z,16.68
2023-05-19T22:13:32.563Z,16.65
2023-05-19T22:15:59.845Z,16.65
2023-05-19T22:18:26.798Z,16.64
2023-05-19T22:20:53.879Z,16.59
2023-05-19T22:23:21.266Z,16.51
2023-05-19T22:25:48.318Z,16.45
2023-05-19T22:28:15.466Z,16.41
2023-05-19T22:30:42.849Z,16.38
2023-05-19T22:33:11.431Z,16.34
2023-05-19T22:35:38.665Z,16.29
2023-05-19T22:38:06.964Z,16.25
2023-05-19T22:40:35.508Z,16.22
2023-05-19T22:43:03.083Z,16.18
2023-05-19T22:45:30.228Z,16.14
2023-05-19T22:47:57.290Z,16.10
2023-05-19T22:50:24.423Z,16.08
2023-05-19T22:52:51.876Z,16.06
2023-05-19T22:55:18.921Z,16.03
2023-05-19T22:57:45.974Z,15.97
2023-05-19T23:00:18.958Z,15.90
2023-05-19T23:02:46.169Z,15.85
2023-05-19T23:05:13.372Z,15.84
2023-05-19T23:07:40.626Z,15.82
2023-05-19T23:10:08.183Z,15.81
2023-05-19T23:12:37.325Z,15.79
2023-05-19T23:15:05.355Z,15.74
2023-05-19T23:17:32.522Z,15.71
2023-05-19T23:19:59.745Z,15.71
2023-05-19T23:22:27.000Z,15.72
2023-05-19T23:24:54.154Z,15.70
2023-05-19T23:27:21.200Z,15.68
2023-05-19T23:29:49.442Z,15.64
2023-05-19T23:32:17.051Z,15.63
2023-05-19T23:34:44.593Z,15.65
2023-05-19T23:37:12.015Z,15.66
2023-05-19T23:39:39.103Z,15.65
2023-05-19T23:42:06.576Z,15.64
2023-05-19T23:44:33.916Z,15.60
2023-05-19T23:47:01.144Z,15.56
2023-05-19T23:49:28.424Z,15.55
2023-05-19T23:51:55.472Z,15.54
2023-05-19T23:54:23.081Z,15.51
2023-05-19T23:56:50.625Z,15.48
2023-05-19T23:59:17.743Z,15.46
